Time;durP1;ratioP1;P1;durP2;ratioP2;P2;SDS_P1;SDS_P2;PMS_P1;PMS_P2;Temp;Humidity;BMP_temperature;BMP_pressure;BME280_temperature;BME280_humidity;BME280_pressure;Samples;Min_cycle;Max_cycle;Signal;HPM_P1;HPM_P2
2023/03/03 00:01:51;;;;;;;43.50;17.08;;;;;;;;;;12717727;19;2004758;-68
2023/03/03 00:07:01;;;;;;;37.80;16.90;;;;;;;;;;12819656;19;20340;-68
2023/03/03 00:11:29;;;;;;;44.28;18.63;;;;;;;;;;12820491;19;20477;-67
2023/03/03 00:16:42;;;;;;;41.28;17.38;;;;;;;;;;12821712;19;20457;-67
2023/03/03 00:22:00;;;;;;;42.40;17.95;;;;;;;;;;12818488;19;20442;-67
2023/03/03 00:26:43;;;;;;;41.55;17.98;;;;;;;;;;12818784;19;20296;-67
2023/03/03 00:32:05;;;;;;;37.17;16.30;;;;;;;;;;12819605;19;20011;-68
2023/03/03 00:37:42;;;;;;;51.65;20.67;;;;;;;;;;12817451;19;20319;-68
2023/03/03 00:42:34;;;;;;;43.20;19.80;;;;;;;;;;12816859;19;20313;-67
2023/03/03 00:53:44;;;;;;;135.60;45.22;;;;;;;;;;12715562;19;2005348;-67
2023/03/03 01:02:54;;;;;;;41.80;19.20;;;;;;;;;;12819341;19;20319;-68
2023/03/03 01:07:43;;;;;;;44.88;19.10;;;;;;;;;;12817079;19;20703;-68
2023/03/03 01:14:01;;;;;;;41.42;18.02;;;;;;;;;;12816331;19;20006;-67
2023/03/03 01:18:34;;;;;;;44.50;19.65;;;;;;;;;;12816519;19;20109;-67
2023/03/03 01:29:01;;;;;;;41.47;18.48;;;;;;;;;;12724601;19;2004845;-67
2023/03/03 01:33:33;;;;;;;43.22;18.77;;;;;;;;;;12821168;19;20311;-67
2023/03/03 01:50:19;;;;;;;48.78;22.83;;;;;;;;;;12817970;19;20398;-67
2023/03/03 02:01:48;;;;;;;50.38;18.95;;;;;;;;;;12719191;19;2005053;-67
2023/03/03 02:06:39;;;;;;;49.17;19.63;;;;;;;;;;12821961;19;20338;-68
2023/03/03 02:11:38;;;;;;;51.08;19.30;;;;;;;;;;12817382;19;20549;-68
2023/03/03 02:16:38;;;;;;;49.88;21.13;;;;;;;;;;12815367;19;20041;-67
2023/03/03 02:21:38;;;;;;;48.42;20.17;;;;;;;;;;12808930;19;20870;-68
2023/03/03 02:26:56;;;;;;;50.95;21.58;;;;;;;;;;12796641;19;21577;-67
2023/03/03 02:31:55;;;;;;;43.78;21.25;;;;;;;;;;12794968;19;20029;-67
2023/03/03 02:42:36;;;;;;;56.17;21.30;;;;;;;;;;12796994;19;20803;-67
2023/03/03 02:47:53;;;;;;;51.65;21.52;;;;;;;;;;12795618;19;20437;-67
2023/03/03 02:52:42;;;;;;;52.72;22.33;;;;;;;;;;12797948;19;20489;-68
2023/03/03 02:57:37;;;;;;;53.00;23.70;;;;;;;;;;12798217;19;20473;-67
2023/03/03 03:02:54;;;;;;;64.47;24.15;;;;;;;;;;12792069;19;20099;-67
2023/03/03 03:18:13;;;;;;;51.78;21.80;;;;;;;;;;12795097;19;20469;-68
2023/03/03 03:29:50;;;;;;;50.08;21.67;;;;;;;;;;12707248;19;2004723;-67
2023/03/03 03:34:44;;;;;;;60.75;24.13;;;;;;;;;;12807243;19;20410;-66
2023/03/03 03:39:30;;;;;;;49.38;18.52;;;;;;;;;;12826653;19;20299;-67
2023/03/03 03:43:57;;;;;;;42.53;19.55;;;;;;;;;;12830811;19;20512;-67
2023/03/03 03:49:40;;;;;;;56.88;20.80;;;;;;;;;;12826964;19;20010;-68
2023/03/03 03:54:28;;;;;;;41.15;18.88;;;;;;;;;;12827616;19;20361;-67
2023/03/03 04:05:55;;;;;;;52.47;21.92;;;;;;;;;;12726101;19;2005143;-68
2023/03/03 04:10:50;;;;;;;57.15;20.85;;;;;;;;;;12826873;19;20437;-67
2023/03/03 04:16:05;;;;;;;53.13;21.63;;;;;;;;;;12825884;19;20014;-68
2023/03/03 04:26:53;;;;;;;62.00;22.08;;;;;;;;;;12723943;19;2004545;-68
2023/03/03 04:31:47;;;;;;;71.28;23.98;;;;;;;;;;12827873;19;20432;-67
2023/03/03 04:36:26;;;;;;;51.53;22.08;;;;;;;;;;12824805;19;20318;-67
2023/03/03 04:41:02;;;;;;;52.30;22.95;;;;;;;;;;12818356;19;20485;-67
2023/03/03 04:45:53;;;;;;;43.15;18.63;;;;;;;;;;12821645;19;20434;-67
2023/03/03 04:50:33;;;;;;;40.88;18.13;;;;;;;;;;12816994;19;20493;-68
2023/03/03 04:55:09;;;;;;;61.28;21.92;;;;;;;;;;12820550;19;20367;-68
2023/03/03 04:59:53;;;;;;;66.60;23.58;;;;;;;;;;12817564;19;20814;-67
2023/03/03 05:04:41;;;;;;;56.90;23.30;;;;;;;;;;12820446;19;20334;-67
2023/03/03 05:09:23;;;;;;;46.90;19.67;;;;;;;;;;12818645;19;20365;-68
2023/03/03 05:14:08;;;;;;;42.33;19.25;;;;;;;;;;12818854;19;20426;-68
2023/03/03 05:19:20;;;;;;;49.63;20.65;;;;;;;;;;12819088;19;20430;-68
2023/03/03 05:24:14;;;;;;;76.03;30.48;;;;;;;;;;12816731;19;20011;-68
2023/03/03 05:29:30;;;;;;;81.78;31.77;;;;;;;;;;12800746;19;20413;-67
2023/03/03 05:34:33;;;;;;;75.60;27.92;;;;;;;;;;12802547;19;20430;-68
2023/03/03 05:39:56;;;;;;;73.78;28.98;;;;;;;;;;12802039;19;20477;-67
2023/03/03 05:44:51;;;;;;;60.95;26.95;;;;;;;;;;12800987;19;20319;-68
2023/03/03 05:49:31;;;;;;;65.47;25.13;;;;;;;;;;12809114;19;20422;-68
2023/03/03 05:54:07;;;;;;;52.38;22.60;;;;;;;;;;12822342;19;20058;-67
2023/03/03 05:59:12;;;;;;;47.20;19.90;;;;;;;;;;12822540;19;20489;-67
2023/03/03 06:09:49;;;;;;;47.42;21.75;;;;;;;;;;12719079;19;2004963;-67
2023/03/03 06:14:43;;;;;;;43.13;20.13;;;;;;;;;;12821373;19;20853;-68
2023/03/03 06:25:34;;;;;;;37.03;18.88;;;;;;;;;;12812375;19;20784;-68
2023/03/03 06:30:36;;;;;;;45.63;19.77;;;;;;;;;;12811501;19;20015;-68
2023/03/03 06:35:40;;;;;;;56.45;23.15;;;;;;;;;;12813349;19;20446;-68
2023/03/03 06:41:12;;;;;;;53.53;23.33;;;;;;;;;;12811554;19;20493;-68
2023/03/03 06:45:50;;;;;;;57.03;24.42;;;;;;;;;;12810429;19;20315;-68
2023/03/03 06:51:13;;;;;;;56.22;23.90;;;;;;;;;;12816021;19;21319;-68
2023/03/03 07:02:09;;;;;;;63.05;27.15;;;;;;;;;;12717352;19;2005175;-68
2023/03/03 07:07:15;;;;;;;60.95;27.85;;;;;;;;;;12818352;19;20301;-68
2023/03/03 07:11:55;;;;;;;67.43;27.55;;;;;;;;;;12818413;19;20544;-67
2023/03/03 07:17:07;;;;;;;54.97;24.58;;;;;;;;;;12829841;19;20450;-67
2023/03/03 07:21:41;;;;;;;71.47;29.02;;;;;;;;;;12830600;19;20421;-68
2023/03/03 07:32:57;;;;;;;72.57;34.50;;;;;;;;;;12828918;19;20298;-68
2023/03/03 07:37:53;;;;;;;62.15;26.98;;;;;;;;;;12820958;19;20120;-68
2023/03/03 07:49:34;;;;;;;66.57;28.95;;;;;;;;;;12716443;19;2005398;-68
2023/03/03 07:54:42;;;;;;;53.65;24.90;;;;;;;;;;12819892;19;20430;-68
2023/03/03 08:05:35;;;;;;;105.15;42.00;;;;;;;;;;12820354;19;20349;-68
2023/03/03 08:10:57;;;;;;;61.33;28.45;;;;;;;;;;12819669;19;20523;-68
2023/03/03 08:15:36;;;;;;;60.67;30.70;;;;;;;;;;12820212;19;20437;-68
2023/03/03 08:20:54;;;;;;;60.38;26.73;;;;;;;;;;12819553;19;20306;-68
2023/03/03 08:26:34;;;;;;;66.18;28.55;;;;;;;;;;12714800;19;2005070;-68
2023/03/03 08:31:03;;;;;;;50.13;23.05;;;;;;;;;;12817043;19;20620;-70
2023/03/03 08:42:42;;;;;;;55.90;22.20;;;;;;;;;;12723775;19;2005215;-69
2023/03/03 08:47:30;;;;;;;54.33;22.98;;;;;;;;;;12828616;19;20307;-68
2023/03/03 08:52:48;;;;;;;55.03;21.08;;;;;;;;;;12827563;19;20066;-68
2023/03/03 09:03:11;;;;;;;55.85;22.55;;;;;;;;;;12820416;19;20422;-68
2023/03/03 09:07:48;;;;;;;48.58;20.80;;;;;;;;;;12823501;19;20443;-68
2023/03/03 09:24:02;;;;;;;63.22;24.02;;;;;;;;;;12823807;19;20418;-67
2023/03/03 09:29:44;;;;;;;51.72;20.23;;;;;;;;;;12825085;19;20305;-68
2023/03/03 09:41:08;;;;;;;53.28;19.67;;;;;;;;;;12813304;19;20550;-68
2023/03/03 09:58:44;;;;;;;49.58;18.38;;;;;;;;;;12816797;19;20485;-68
2023/03/03 10:04:02;;;;;;;43.55;18.90;;;;;;;;;;12814860;19;20510;-68
2023/03/03 10:08:36;;;;;;;40.33;17.83;;;;;;;;;;12814216;19;21054;-68
2023/03/03 10:13:40;;;;;;;14.52;7.53;;;;;;;;;;12819932;19;20014;-68
2023/03/03 10:24:57;;;;;;;27.60;13.82;;;;;;;;;;12820565;19;20039;-68
2023/03/03 10:30:10;;;;;;;31.08;13.68;;;;;;;;;;12819645;19;20002;-67
2023/03/03 10:41:59;;;;;;;24.40;11.38;;;;;;;;;;12717207;19;2005007;-67
2023/03/03 10:53:57;;;;;;;27.70;13.55;;;;;;;;;;12698913;19;2005070;-67
2023/03/03 10:59:54;;;;;;;25.95;12.40;;;;;;;;;;12817781;19;20762;-67
2023/03/03 11:17:11;;;;;;;32.95;13.32;;;;;;;;;;12817479;19;20486;-66
2023/03/03 11:22:28;;;;;;;28.02;11.57;;;;;;;;;;12816187;19;20463;-67
2023/03/03 11:27:57;;;;;;;28.27;11.60;;;;;;;;;;12815767;19;20011;-67
2023/03/03 11:33:30;;;;;;;26.75;11.20;;;;;;;;;;12710512;19;2005886;-69
2023/03/03 11:38:32;;;;;;;29.25;11.82;;;;;;;;;;12817831;19;20074;-67
2023/03/03 11:50:04;;;;;;;22.92;11.18;;;;;;;;;;12814047;19;20505;-68
2023/03/03 11:54:53;;;;;;;30.05;12.30;;;;;;;;;;12813908;19;20415;-68
2023/03/03 12:12:28;;;;;;;28.70;10.82;;;;;;;;;;12825385;19;20022;-68
2023/03/03 12:17:50;;;;;;;26.13;9.75;;;;;;;;;;12824459;19;20379;-67
2023/03/03 12:23:09;;;;;;;28.40;11.63;;;;;;;;;;12824373;19;20465;-67
2023/03/03 12:28:39;;;;;;;23.98;10.38;;;;;;;;;;12824224;19;20003;-68
2023/03/03 12:34:08;;;;;;;27.25;10.85;;;;;;;;;;12826118;19;20018;-68
2023/03/03 12:39:03;;;;;;;23.33;9.63;;;;;;;;;;12826835;19;20085;-68
2023/03/03 12:44:06;;;;;;;24.05;11.65;;;;;;;;;;12824707;19;20509;-67
2023/03/03 12:50:00;;;;;;;26.25;10.63;;;;;;;;;;12827598;19;20532;-68
2023/03/03 12:55:37;;;;;;;23.63;10.82;;;;;;;;;;12821772;19;20442;-67
2023/03/03 13:00:39;;;;;;;22.50;8.90;;;;;;;;;;12822054;19;20436;-68
2023/03/03 13:06:10;;;;;;;22.90;10.23;;;;;;;;;;12823654;19;20358;-68
2023/03/03 13:12:01;;;;;;;26.15;12.25;;;;;;;;;;12812749;19;20530;-68
2023/03/03 13:16:43;;;;;;;31.70;12.90;;;;;;;;;;12826163;19;20323;-67
2023/03/03 13:22:07;;;;;;;27.95;12.23;;;;;;;;;;12823907;19;20743;-68
2023/03/03 13:27:52;;;;;;;19.02;9.50;;;;;;;;;;12718942;19;2005190;-67
2023/03/03 13:32:53;;;;;;;27.13;11.82;;;;;;;;;;12822274;19;20089;-67
2023/03/03 13:45:07;;;;;;;26.85;10.52;;;;;;;;;;12711245;19;2005107;-68
2023/03/03 13:50:38;;;;;;;25.73;11.38;;;;;;;;;;12812576;19;20057;-68
2023/03/03 14:01:54;;;;;;;17.25;8.85;;;;;;;;;;12811744;19;20010;-69
2023/03/03 14:06:29;;;;;;;;;;;;;;;;;;12821729;19;20504;-68
2023/03/03 14:18:33;;;;;;;21.85;10.40;;;;;;;;;;12718932;19;2005237;-69
2023/03/03 14:23:29;;;;;;;21.70;9.45;;;;;;;;;;12817112;19;20394;-69
2023/03/03 14:27:49;;;;;;;22.90;9.60;;;;;;;;;;12821513;19;20459;-68
2023/03/03 14:32:29;;;;;;;27.42;13.25;;;;;;;;;;12820056;19;20314;-68
2023/03/03 14:38:11;;;;;;;20.55;8.93;;;;;;;;;;12820295;19;20447;-68
2023/03/03 14:43:56;;;;;;;21.23;9.27;;;;;;;;;;12811167;19;20339;-69
2023/03/03 14:49:41;;;;;;;20.02;11.27;;;;;;;;;;12820574;19;20010;-69
2023/03/03 14:54:35;;;;;;;26.75;8.68;;;;;;;;;;12816995;19;20464;-69
2023/03/03 14:59:32;;;;;;;22.30;8.70;;;;;;;;;;12818026;19;20345;-69
2023/03/03 15:05:08;;;;;;;17.27;7.97;;;;;;;;;;12814625;19;20006;-68
2023/03/03 15:09:49;;;;;;;21.77;9.13;;;;;;;;;;12815757;19;20428;-68
2023/03/03 15:14:49;;;;;;;22.38;10.48;;;;;;;;;;12815423;19;20058;-69
2023/03/03 15:19:46;;;;;;;18.55;9.02;;;;;;;;;;12814132;19;20834;-68
2023/03/03 15:25:28;;;;;;;15.38;7.25;;;;;;;;;;12816733;19;20452;-69
2023/03/03 15:30:33;;;;;;;20.50;9.57;;;;;;;;;;12814119;19;20467;-68
2023/03/03 15:35:27;;;;;;;22.02;9.98;;;;;;;;;;12823057;19;20391;-68
2023/03/03 15:41:47;;;;;;;14.82;8.55;;;;;;;;;;12719202;19;2006099;-68
2023/03/03 15:47:05;;;;;;;21.95;10.35;;;;;;;;;;12821088;19;20322;-69
2023/03/03 15:53:01;;;;;;;15.13;7.63;;;;;;;;;;12822260;19;20512;-68
2023/03/03 15:58:52;;;;;;;19.25;7.93;;;;;;;;;;12720069;19;2004888;-68
2023/03/03 16:03:47;;;;;;;21.35;8.43;;;;;;;;;;12818866;19;20085;-68
2023/03/03 16:09:32;;;;;;;25.55;11.27;;;;;;;;;;12820405;19;20539;-69
2023/03/03 16:20:53;;;;;;;24.42;9.95;;;;;;;;;;12819006;19;20890;-68
2023/03/03 16:31:59;;;;;;;37.08;16.50;;;;;;;;;;12817876;19;20505;-68
2023/03/03 16:43:09;;;;;;;15.10;8.00;;;;;;;;;;12813315;19;21044;-69
2023/03/03 16:48:36;;;;;;;13.23;6.82;;;;;;;;;;12823533;19;20021;-68
2023/03/03 16:54:28;;;;;;;13.73;5.55;;;;;;;;;;12818694;19;20437;-68
2023/03/03 16:59:48;;;;;;;21.90;9.65;;;;;;;;;;12817033;19;20070;-68
2023/03/03 17:04:50;;;;;;;16.90;8.98;;;;;;;;;;12816413;19;20095;-68
2023/03/03 17:10:10;;;;;;;13.95;7.88;;;;;;;;;;12819640;19;20486;-68
2023/03/03 17:15:28;;;;;;;22.23;9.32;;;;;;;;;;12816613;19;20107;-68
2023/03/03 17:20:36;;;;;;;28.33;11.85;;;;;;;;;;12815850;19;20430;-68
2023/03/03 17:26:01;;;;;;;26.00;11.35;;;;;;;;;;12823051;19;20338;-68
2023/03/03 17:37:37;;;;;;;18.92;7.80;;;;;;;;;;12818188;19;20295;-68
2023/03/03 17:55:41;;;;;;;13.32;6.43;;;;;;;;;;12813138;19;20376;-69
2023/03/03 18:00:39;;;;;;;21.80;7.93;;;;;;;;;;12810007;19;20426;-68
2023/03/03 18:12:33;;;;;;;30.83;11.18;;;;;;;;;;12816968;19;20426;-68
2023/03/03 18:17:41;;;;;;;15.98;8.15;;;;;;;;;;12813053;19;20520;-69
2023/03/03 18:29:30;;;;;;;28.65;11.30;;;;;;;;;;12820102;19;20981;-69
2023/03/03 18:34:39;;;;;;;31.77;12.50;;;;;;;;;;12811937;19;20330;-69
2023/03/03 18:56:00;;;;;;;29.70;12.60;;;;;;;;;;12817836;19;20442;-68
2023/03/03 19:00:48;;;;;;;36.08;15.65;;;;;;;;;;12818460;19;20384;-67
2023/03/03 19:05:48;;;;;;;23.75;11.77;;;;;;;;;;12815229;19;20429;-67
2023/03/03 19:10:38;;;;;;;28.58;13.98;;;;;;;;;;12821813;19;20291;-67
2023/03/03 19:22:26;;;;;;;39.65;16.38;;;;;;;;;;12727716;19;2006268;-67
2023/03/03 19:27:11;;;;;;;42.70;15.85;;;;;;;;;;12830353;19;20352;-67
2023/03/03 19:32:56;;;;;;;38.83;16.13;;;;;;;;;;12829718;19;20528;-68
2023/03/03 19:38:31;;;;;;;34.45;13.98;;;;;;;;;;12718858;19;2005205;-67
2023/03/03 19:43:27;;;;;;;27.42;11.98;;;;;;;;;;12819322;19;20011;-67
2023/03/03 19:55:07;;;;;;;23.75;11.60;;;;;;;;;;12718745;19;2005100;-67
2023/03/03 20:00:45;;;;;;;30.35;14.48;;;;;;;;;;12819439;19;20315;-67
2023/03/03 20:16:44;;;;;;;39.78;18.30;;;;;;;;;;12819751;19;20130;-67
2023/03/03 20:22:10;;;;;;;30.52;14.43;;;;;;;;;;12822514;19;20485;-68
2023/03/03 20:28:27;;;;;;;41.22;17.15;;;;;;;;;;12817948;19;20434;-68
2023/03/03 20:34:06;;;;;;;42.75;18.58;;;;;;;;;;12818272;19;20494;-70
2023/03/03 20:39:45;;;;;;;47.85;19.23;;;;;;;;;;12818065;19;20011;-69
2023/03/03 20:51:27;;;;;;;51.63;18.42;;;;;;;;;;12816789;19;20433;-69
2023/03/03 20:56:07;;;;;;;38.78;18.88;;;;;;;;;;12817209;19;20046;-68
2023/03/03 21:13:50;;;;;;;41.58;16.73;;;;;;;;;;12877780;19;20825;-68
2023/03/03 21:19:27;;;;;;;39.63;17.52;;;;;;;;;;12881130;19;20492;-67
2023/03/03 21:24:58;;;;;;;34.45;15.27;;;;;;;;;;12871708;19;20536;-67
2023/03/03 21:29:37;;;;;;;33.17;14.93;;;;;;;;;;12876332;19;20038;-67
2023/03/03 21:41:12;;;;;;;38.60;16.63;;;;;;;;;;12770201;19;2004834;-67
2023/03/03 21:46:11;;;;;;;39.50;17.02;;;;;;;;;;12871436;19;20387;-68
2023/03/03 21:57:26;;;;;;;39.92;16.30;;;;;;;;;;12768746;19;2005200;-68
2023/03/03 22:02:09;;;;;;;38.47;16.30;;;;;;;;;;12871119;19;20497;-68
2023/03/03 22:06:53;;;;;;;38.67;18.25;;;;;;;;;;12872372;19;20492;-67
2023/03/03 22:11:45;;;;;;;37.97;16.77;;;;;;;;;;12867678;19;20436;-67
2023/03/03 22:16:52;;;;;;;31.23;14.55;;;;;;;;;;12870012;19;20430;-68
2023/03/03 22:22:41;;;;;;;38.83;17.57;;;;;;;;;;12853980;19;20557;-68
2023/03/03 22:27:52;;;;;;;31.45;15.25;;;;;;;;;;12818512;19;20337;-68
2023/03/03 22:32:27;;;;;;;36.17;15.02;;;;;;;;;;12819218;19;20370;-68
2023/03/03 22:37:11;;;;;;;41.50;17.48;;;;;;;;;;12820391;19;20364;-68
2023/03/03 22:43:29;;;;;;;45.22;16.90;;;;;;;;;;12816581;19;20473;-68
2023/03/03 22:48:37;;;;;;;41.22;16.77;;;;;;;;;;12817272;19;20345;-68
2023/03/03 22:53:02;;;;;;;43.60;18.77;;;;;;;;;;12816763;19;20434;-68
2023/03/03 23:03:52;;;;;;;45.22;19.40;;;;;;;;;;12817500;19;20470;-68
2023/03/03 23:08:27;;;;;;;47.78;20.38;;;;;;;;;;12815856;19;20364;-68
2023/03/03 23:12:51;;;;;;;48.28;20.40;;;;;;;;;;12822864;19;20432;-68
2023/03/03 23:22:47;;;;;;;46.88;18.60;;;;;;;;;;12822904;19;20011;-68
2023/03/03 23:27:33;;;;;;;40.65;18.00;;;;;;;;;;12824566;19;20429;-68
2023/03/03 23:32:31;;;;;;;42.33;18.67;;;;;;;;;;12825397;19;20504;-68
2023/03/03 23:37:40;;;;;;;40.58;17.20;;;;;;;;;;12823306;19;20007;-68
2023/03/03 23:41:59;;;;;;;39.88;17.58;;;;;;;;;;12822481;19;20318;-68
2023/03/03 23:47:43;;;;;;;45.03;18.13;;;;;;;;;;12824727;19;20392;-68
2023/03/03 23:53:00;;;;;;;36.60;15.35;;;;;;;;;;12722180;19;2005281;-68
2023/03/03 23:57:53;;;;;;;39.13;18.63;;;;;;;;;;12823438;19;20430;-68
